sensor_id;sensor_type;location;lat;lon;timestamp;temperature;humidity
19538;DHT22;9914;51.008;4.300;2023-03-23T00:02:38;13.80;99.90
19538;DHT22;9914;51.008;4.300;2023-03-23T00:05:06;13.80;99.90
19538;DHT22;9914;51.008;4.300;2023-03-23T00:07:34;13.90;99.90
19538;DHT22;9914;51.008;4.300;2023-03-23T00:10:00;13.90;99.90
19538;DHT22;9914;51.008;4.300;2023-03-23T00:12:29;13.80;99.90
19538;DHT22;9914;51.008;4.300;2023-03-23T00:15:03;13.80;99.90
19538;DHT22;9914;51.008;4.300;2023-03-23T00:17:31;13.90;99.90
19538;DHT22;9914;51.008;4.300;2023-03-23T00:19:58;13.80;99.90
19538;DHT22;9914;51.008;4.300;2023-03-23T00:22:27;13.90;99.90
19538;DHT22;9914;51.008;4.300;2023-03-23T00:24:54;13.90;99.90
19538;DHT22;9914;51.008;4.300;2023-03-23T00:27:20;13.90;99.90
19538;DHT22;9914;51.008;4.300;2023-03-23T00:29:51;13.90;99.90
19538;DHT22;9914;51.008;4.300;2023-03-23T00:32:21;13.80;99.90
19538;DHT22;9914;51.008;4.300;2023-03-23T00:34:53;13.90;99.90
19538;DHT22;9914;51.008;4.300;2023-03-23T00:37:19;13.80;99.90
19538;DHT22;9914;51.008;4.300;2023-03-23T00:39:45;13.80;99.90
19538;DHT22;9914;51.008;4.300;2023-03-23T00:42:15;13.90;99.90
19538;DHT22;9914;51.008;4.300;2023-03-23T00:44:42;13.90;99.90
19538;DHT22;9914;51.008;4.300;2023-03-23T00:47:09;13.90;99.90
19538;DHT22;9914;51.008;4.300;2023-03-23T00:49:36;13.80;99.90
19538;DHT22;9914;51.008;4.300;2023-03-23T00:52:04;13.90;99.90
19538;DHT22;9914;51.008;4.300;2023-03-23T00:54:30;13.80;99.90
19538;DHT22;9914;51.008;4.300;2023-03-23T00:56:56;13.90;99.90
19538;DHT22;9914;51.008;4.300;2023-03-23T00:59:21;13.90;99.90
19538;DHT22;9914;51.008;4.300;2023-03-23T01:01:48;13.90;99.90
19538;DHT22;9914;51.008;4.300;2023-03-23T01:04:15;13.90;99.90
19538;DHT22;9914;51.008;4.300;2023-03-23T01:06:43;13.90;99.90
19538;DHT22;9914;51.008;4.300;2023-03-23T01:09:14;13.80;99.90
19538;DHT22;9914;51.008;4.300;2023-03-23T01:11:45;13.90;99.90
19538;DHT22;9914;51.008;4.300;2023-03-23T01:14:12;13.90;99.90
19538;DHT22;9914;51.008;4.300;2023-03-23T01:16:38;13.90;99.90
19538;DHT22;9914;51.008;4.300;2023-03-23T01:19:04;13.90;99.90
19538;DHT22;9914;51.008;4.300;2023-03-23T01:21:30;13.90;99.90
19538;DHT22;9914;51.008;4.300;2023-03-23T01:23:56;13.90;99.90
19538;DHT22;9914;51.008;4.300;2023-03-23T01:26:24;13.90;99.90
19538;DHT22;9914;51.008;4.300;2023-03-23T01:28:50;13.90;99.90
19538;DHT22;9914;51.008;4.300;2023-03-23T01:31:20;13.80;99.90
19538;DHT22;9914;51.008;4.300;2023-03-23T01:33:47;13.80;99.90
19538;DHT22;9914;51.008;4.300;2023-03-23T01:36:15;13.90;99.90
19538;DHT22;9914;51.008;4.300;2023-03-23T01:38:45;13.90;99.90
19538;DHT22;9914;51.008;4.300;2023-03-23T01:41:12;13.90;99.90
19538;DHT22;9914;51.008;4.300;2023-03-23T01:44:59;13.90;99.90
19538;DHT22;9914;51.008;4.300;2023-03-23T01:46:53;13.90;99.90
19538;DHT22;9914;51.008;4.300;2023-03-23T01:49:27;13.90;99.90
19538;DHT22;9914;51.008;4.300;2023-03-23T01:52:04;13.80;99.90
19538;DHT22;9914;51.008;4.300;2023-03-23T01:54:30;13.80;99.90
19538;DHT22;9914;51.008;4.300;2023-03-23T01:57:03;13.90;99.90
19538;DHT22;9914;51.008;4.300;2023-03-23T01:59:30;14.00;99.90
19538;DHT22;9914;51.008;4.300;2023-03-23T02:01:57;14.00;99.90
19538;DHT22;9914;51.008;4.300;2023-03-23T02:04:24;13.90;99.90
19538;DHT22;9914;51.008;4.300;2023-03-23T02:06:51;13.90;99.90
19538;DHT22;9914;51.008;4.300;2023-03-23T02:09:18;13.90;99.90
19538;DHT22;9914;51.008;4.300;2023-03-23T02:11:45;13.90;99.90
19538;DHT22;9914;51.008;4.300;2023-03-23T02:14:11;13.80;99.90
19538;DHT22;9914;51.008;4.300;2023-03-23T02:16:40;13.80;99.90
19538;DHT22;9914;51.008;4.300;2023-03-23T02:35:38;13.90;99.90
19538;DHT22;9914;51.008;4.300;2023-03-23T02:38:09;13.80;99.90
19538;DHT22;9914;51.008;4.300;2023-03-23T02:40:47;13.90;99.90
19538;DHT22;9914;51.008;4.300;2023-03-23T02:43:22;13.90;99.90
19538;DHT22;9914;51.008;4.300;2023-03-23T02:45:50;13.80;99.90
19538;DHT22;9914;51.008;4.300;2023-03-23T02:48:19;13.80;99.90
19538;DHT22;9914;51.008;4.300;2023-03-23T02:50:49;13.80;99.90
19538;DHT22;9914;51.008;4.300;2023-03-23T02:53:19;13.80;99.90
19538;DHT22;9914;51.008;4.300;2023-03-23T02:55:47;13.80;99.90
19538;DHT22;9914;51.008;4.300;2023-03-23T02:58:14;13.90;99.90
19538;DHT22;9914;51.008;4.300;2023-03-23T03:00:40;13.80;99.90
19538;DHT22;9914;51.008;4.300;2023-03-23T03:03:13;13.90;99.90
19538;DHT22;9914;51.008;4.300;2023-03-23T03:11:13;13.90;99.90
19538;DHT22;9914;51.008;4.300;2023-03-23T03:13:59;13.80;99.90
19538;DHT22;9914;51.008;4.300;2023-03-23T03:16:52;13.70;99.90
19538;DHT22;9914;51.008;4.300;2023-03-23T03:19:40;13.70;99.90
19538;DHT22;9914;51.008;4.300;2023-03-23T03:22:08;13.70;99.90
19538;DHT22;9914;51.008;4.300;2023-03-23T03:24:35;13.60;99.90
19538;DHT22;9914;51.008;4.300;2023-03-23T03:27:11;13.70;99.90
19538;DHT22;9914;51.008;4.300;2023-03-23T03:29:41;13.70;99.90
19538;DHT22;9914;51.008;4.300;2023-03-23T03:32:11;13.70;99.90
19538;DHT22;9914;51.008;4.300;2023-03-23T03:34:38;13.60;99.90
19538;DHT22;9914;51.008;4.300;2023-03-23T03:37:04;13.70;99.90
19538;DHT22;9914;51.008;4.300;2023-03-23T03:39:34;13.60;99.90
19538;DHT22;9914;51.008;4.300;2023-03-23T03:42:00;13.60;99.90
19538;DHT22;9914;51.008;4.300;2023-03-23T03:44:26;13.70;99.90
19538;DHT22;9914;51.008;4.300;2023-03-23T03:46:52;13.70;99.90
19538;DHT22;9914;51.008;4.300;2023-03-23T03:49:18;13.70;99.90
19538;DHT22;9914;51.008;4.300;2023-03-23T03:51:44;13.70;99.90
19538;DHT22;9914;51.008;4.300;2023-03-23T03:54:10;13.70;99.90
19538;DHT22;9914;51.008;4.300;2023-03-23T03:56:36;13.70;99.90
19538;DHT22;9914;51.008;4.300;2023-03-23T03:59:06;13.60;99.90
19538;DHT22;9914;51.008;4.300;2023-03-23T04:01:33;13.60;99.90
19538;DHT22;9914;51.008;4.300;2023-03-23T04:04:00;13.50;99.90
19538;DHT22;9914;51.008;4.300;2023-03-23T04:06:25;13.50;99.90
19538;DHT22;9914;51.008;4.300;2023-03-23T04:08:57;13.50;99.90
19538;DHT22;9914;51.008;4.300;2023-03-23T04:11:25;13.50;99.90
19538;DHT22;9914;51.008;4.300;2023-03-23T04:13:51;13.50;99.90
19538;DHT22;9914;51.008;4.300;2023-03-23T04:16:17;13.50;99.90
19538;DHT22;9914;51.008;4.300;2023-03-23T04:18:43;13.60;99.90
19538;DHT22;9914;51.008;4.300;2023-03-23T04:21:09;13.60;99.90
19538;DHT22;9914;51.008;4.300;2023-03-23T04:23:36;13.70;99.90
19538;DHT22;9914;51.008;4.300;2023-03-23T04:26:03;13.70;99.90
19538;DHT22;9914;51.008;4.300;2023-03-23T04:28:29;13.80;99.90
19538;DHT22;9914;51.008;4.300;2023-03-23T04:30:55;13.80;99.90
19538;DHT22;9914;51.008;4.300;2023-03-23T04:33:22;13.70;99.90
19538;DHT22;9914;51.008;4.300;2023-03-23T04:35:51;13.70;99.90
19538;DHT22;9914;51.008;4.300;2023-03-23T04:38:19;13.70;99.90
19538;DHT22;9914;51.008;4.300;2023-03-23T04:40:51;13.70;99.90
19538;DHT22;9914;51.008;4.300;2023-03-23T04:43:20;13.60;99.90
19538;DHT22;9914;51.008;4.300;2023-03-23T04:45:51;13.60;99.90
19538;DHT22;9914;51.008;4.300;2023-03-23T04:48:17;13.50;99.90
19538;DHT22;9914;51.008;4.300;2023-03-23T04:50:45;13.50;99.90
19538;DHT22;9914;51.008;4.300;2023-03-23T04:53:10;13.40;99.90
19538;DHT22;9914;51.008;4.300;2023-03-23T04:55:36;13.50;99.90
19538;DHT22;9914;51.008;4.300;2023-03-23T04:58:03;13.40;99.90
19538;DHT22;9914;51.008;4.300;2023-03-23T05:00:29;13.30;99.90
19538;DHT22;9914;51.008;4.300;2023-03-23T05:02:55;13.30;99.90
19538;DHT22;9914;51.008;4.300;2023-03-23T05:05:22;13.40;99.90
19538;DHT22;9914;51.008;4.300;2023-03-23T05:07:48;13.40;99.90
19538;DHT22;9914;51.008;4.300;2023-03-23T05:10:15;13.30;99.90
19538;DHT22;9914;51.008;4.300;2023-03-23T05:12:41;13.40;99.90
19538;DHT22;9914;51.008;4.300;2023-03-23T05:15:08;13.40;99.90
19538;DHT22;9914;51.008;4.300;2023-03-23T05:17:35;13.30;99.90
19538;DHT22;9914;51.008;4.300;2023-03-23T05:20:02;13.30;99.90
19538;DHT22;9914;51.008;4.300;2023-03-23T05:22:30;13.20;99.90
19538;DHT22;9914;51.008;4.300;2023-03-23T05:24:59;13.20;99.90
19538;DHT22;9914;51.008;4.300;2023-03-23T05:27:28;13.20;99.90
19538;DHT22;9914;51.008;4.300;2023-03-23T05:29:58;13.20;99.90
19538;DHT22;9914;51.008;4.300;2023-03-23T05:32:26;13.30;99.90
19538;DHT22;9914;51.008;4.300;2023-03-23T05:34:56;13.40;99.90
19538;DHT22;9914;51.008;4.300;2023-03-23T05:37:22;13.40;99.90
19538;DHT22;9914;51.008;4.300;2023-03-23T05:39:48;13.50;99.90
19538;DHT22;9914;51.008;4.300;2023-03-23T05:42:14;13.40;99.90
19538;DHT22;9914;51.008;4.300;2023-03-23T05:44:39;13.50;99.90
19538;DHT22;9914;51.008;4.300;2023-03-23T05:47:05;13.40;99.90
19538;DHT22;9914;51.008;4.300;2023-03-23T05:49:31;13.30;99.90
19538;DHT22;9914;51.008;4.300;2023-03-23T05:51:56;13.30;99.90
19538;DHT22;9914;51.008;4.300;2023-03-23T05:54:22;13.30;99.90
19538;DHT22;9914;51.008;4.300;2023-03-23T05:56:48;13.30;99.90
19538;DHT22;9914;51.008;4.300;2023-03-23T05:59:14;13.30;99.90
19538;DHT22;9914;51.008;4.300;2023-03-23T06:01:40;13.40;99.90
19538;DHT22;9914;51.008;4.300;2023-03-23T06:04:06;13.40;99.90
19538;DHT22;9914;51.008;4.300;2023-03-23T06:06:31;13.30;99.90
19538;DHT22;9914;51.008;4.300;2023-03-23T06:08:58;13.30;99.90
19538;DHT22;9914;51.008;4.300;2023-03-23T06:11:24;13.30;99.90
19538;DHT22;9914;51.008;4.300;2023-03-23T06:13:52;13.20;99.90
19538;DHT22;9914;51.008;4.300;2023-03-23T06:16:18;13.20;99.90
19538;DHT22;9914;51.008;4.300;2023-03-23T06:18:44;13.20;99.90
19538;DHT22;9914;51.008;4.300;2023-03-23T06:21:10;13.30;99.90
19538;DHT22;9914;51.008;4.300;2023-03-23T06:23:36;13.30;99.90
19538;DHT22;9914;51.008;4.300;2023-03-23T06:26:06;13.30;99.90
19538;DHT22;9914;51.008;4.300;2023-03-23T06:28:33;13.30;99.90
19538;DHT22;9914;51.008;4.300;2023-03-23T06:31:00;13.00;99.90
19538;DHT22;9914;51.008;4.300;2023-03-23T06:33:27;12.50;99.90
19538;DHT22;9914;51.008;4.300;2023-03-23T06:35:52;12.20;99.90
19538;DHT22;9914;51.008;4.300;2023-03-23T06:38:18;12.10;99.90
19538;DHT22;9914;51.008;4.300;2023-03-23T06:40:43;11.90;99.90
19538;DHT22;9914;51.008;4.300;2023-03-23T06:43:12;11.80;99.90
19538;DHT22;9914;51.008;4.300;2023-03-23T06:45:39;11.70;99.90
19538;DHT22;9914;51.008;4.300;2023-03-23T06:48:05;11.50;99.90
19538;DHT22;9914;51.008;4.300;2023-03-23T06:50:31;11.50;99.90
19538;DHT22;9914;51.008;4.300;2023-03-23T06:52:56;11.50;99.90
19538;DHT22;9914;51.008;4.300;2023-03-23T06:55:22;11.50;99.90
19538;DHT22;9914;51.008;4.300;2023-03-23T06:57:48;11.50;99.90
19538;DHT22;9914;51.008;4.300;2023-03-23T07:00:14;11.50;99.90
19538;DHT22;9914;51.008;4.300;2023-03-23T07:02:40;11.60;99.90
19538;DHT22;9914;51.008;4.300;2023-03-23T07:05:08;11.50;99.90
19538;DHT22;9914;51.008;4.300;2023-03-23T07:07:39;11.40;99.90
19538;DHT22;9914;51.008;4.300;2023-03-23T07:10:07;11.50;99.90
19538;DHT22;9914;51.008;4.300;2023-03-23T07:12:35;11.50;99.90
19538;DHT22;9914;51.008;4.300;2023-03-23T07:15:03;11.60;99.90
19538;DHT22;9914;51.008;4.300;2023-03-23T07:17:29;11.70;99.90
19538;DHT22;9914;51.008;4.300;2023-03-23T07:19:55;11.70;99.90
19538;DHT22;9914;51.008;4.300;2023-03-23T07:22:20;11.70;99.90
19538;DHT22;9914;51.008;4.300;2023-03-23T07:24:46;11.70;99.90
19538;DHT22;9914;51.008;4.300;2023-03-23T07:27:12;11.70;99.90
19538;DHT22;9914;51.008;4.300;2023-03-23T07:29:37;11.70;99.90
19538;DHT22;9914;51.008;4.300;2023-03-23T07:32:04;11.60;99.90
19538;DHT22;9914;51.008;4.300;2023-03-23T07:34:31;11.70;99.90
19538;DHT22;9914;51.008;4.300;2023-03-23T07:36:57;11.80;99.90
19538;DHT22;9914;51.008;4.300;2023-03-23T07:39:23;11.90;99.90
19538;DHT22;9914;51.008;4.300;2023-03-23T07:41:50;12.00;99.90
19538;DHT22;9914;51.008;4.300;2023-03-23T07:44:16;12.10;99.90
19538;DHT22;9914;51.008;4.300;2023-03-23T07:46:41;12.10;99.90
19538;DHT22;9914;51.008;4.300;2023-03-23T07:49:07;12.20;99.90
19538;DHT22;9914;51.008;4.300;2023-03-23T07:51:33;12.20;99.90
19538;DHT22;9914;51.008;4.300;2023-03-23T07:53:59;12.30;99.90
19538;DHT22;9914;51.008;4.300;2023-03-23T07:56:27;12.30;99.90
19538;DHT22;9914;51.008;4.300;2023-03-23T07:58:53;12.40;99.90
19538;DHT22;9914;51.008;4.300;2023-03-23T08:01:18;12.50;99.90
19538;DHT22;9914;51.008;4.300;2023-03-23T08:03:44;12.70;99.90
19538;DHT22;9914;51.008;4.300;2023-03-23T08:06:09;12.80;99.90
19538;DHT22;9914;51.008;4.300;2023-03-23T08:08:35;12.90;99.90
19538;DHT22;9914;51.008;4.300;2023-03-23T08:11:03;13.00;99.90
19538;DHT22;9914;51.008;4.300;2023-03-23T08:13:28;12.80;99.90
19538;DHT22;9914;51.008;4.300;2023-03-23T08:15:54;12.80;99.90
19538;DHT22;9914;51.008;4.300;2023-03-23T08:18:20;12.80;99.90
19538;DHT22;9914;51.008;4.300;2023-03-23T08:20:46;12.80;99.90
19538;DHT22;9914;51.008;4.300;2023-03-23T08:23:11;12.80;99.90
19538;DHT22;9914;51.008;4.300;2023-03-23T08:25:37;12.90;99.90
19538;DHT22;9914;51.008;4.300;2023-03-23T08:28:04;12.80;99.90
19538;DHT22;9914;51.008;4.300;2023-03-23T08:30:30;12.90;99.90
19538;DHT22;9914;51.008;4.300;2023-03-23T08:32:59;12.90;99.90
19538;DHT22;9914;51.008;4.300;2023-03-23T08:35:26;12.80;99.90
19538;DHT22;9914;51.008;4.300;2023-03-23T08:37:52;12.70;99.90
19538;DHT22;9914;51.008;4.300;2023-03-23T08:40:21;12.50;99.90
19538;DHT22;9914;51.008;4.300;2023-03-23T08:42:48;12.60;99.90
19538;DHT22;9914;51.008;4.300;2023-03-23T08:45:17;12.60;99.90
19538;DHT22;9914;51.008;4.300;2023-03-23T08:47:43;12.60;99.90
19538;DHT22;9914;51.008;4.300;2023-03-23T08:50:13;12.60;99.90
19538;DHT22;9914;51.008;4.300;2023-03-23T08:52:39;12.60;99.90
19538;DHT22;9914;51.008;4.300;2023-03-23T08:55:05;12.60;99.90
19538;DHT22;9914;51.008;4.300;2023-03-23T08:57:34;12.70;99.90
19538;DHT22;9914;51.008;4.300;2023-03-23T09:00:02;12.90;99.90
19538;DHT22;9914;51.008;4.300;2023-03-23T09:02:38;13.10;99.90
19538;DHT22;9914;51.008;4.300;2023-03-23T09:05:04;13.30;99.90
19538;DHT22;9914;51.008;4.300;2023-03-23T09:07:30;13.40;99.90
19538;DHT22;9914;51.008;4.300;2023-03-23T09:09:56;13.50;99.90
19538;DHT22;9914;51.008;4.300;2023-03-23T09:12:21;13.40;99.90
19538;DHT22;9914;51.008;4.300;2023-03-23T09:14:48;13.30;99.90
19538;DHT22;9914;51.008;4.300;2023-03-23T09:17:14;13.10;99.90
19538;DHT22;9914;51.008;4.300;2023-03-23T09:19:40;13.10;99.90
19538;DHT22;9914;51.008;4.300;2023-03-23T09:22:06;13.10;99.90
19538;DHT22;9914;51.008;4.300;2023-03-23T09:24:33;13.10;99.90
19538;DHT22;9914;51.008;4.300;2023-03-23T09:26:59;13.10;99.90
19538;DHT22;9914;51.008;4.300;2023-03-23T09:29:26;13.20;99.90
19538;DHT22;9914;51.008;4.300;2023-03-23T09:31:52;13.20;99.90
19538;DHT22;9914;51.008;4.300;2023-03-23T09:34:18;13.30;99.90
19538;DHT22;9914;51.008;4.300;2023-03-23T09:36:44;13.50;99.90
19538;DHT22;9914;51.008;4.300;2023-03-23T09:39:10;13.60;99.90
19538;DHT22;9914;51.008;4.300;2023-03-23T09:44:28;13.90;99.90
19538;DHT22;9914;51.008;4.300;2023-03-23T09:47:14;13.80;99.90
19538;DHT22;9914;51.008;4.300;2023-03-23T09:49:51;13.80;99.90
19538;DHT22;9914;51.008;4.300;2023-03-23T09:52:19;13.70;99.90
19538;DHT22;9914;51.008;4.300;2023-03-23T09:54:50;13.70;99.90
19538;DHT22;9914;51.008;4.300;2023-03-23T09:57:45;13.90;99.90
19538;DHT22;9914;51.008;4.300;2023-03-23T10:00:24;14.10;99.90
19538;DHT22;9914;51.008;4.300;2023-03-23T10:03:06;14.00;99.90
19538;DHT22;9914;51.008;4.300;2023-03-23T10:05:41;14.00;99.90
19538;DHT22;9914;51.008;4.300;2023-03-23T10:10:50;14.40;99.90
19538;DHT22;9914;51.008;4.300;2023-03-23T10:16:12;14.50;99.90
19538;DHT22;9914;51.008;4.300;2023-03-23T10:22:02;14.60;99.90
19538;DHT22;9914;51.008;4.300;2023-03-23T10:24:36;14.70;99.90
19538;DHT22;9914;51.008;4.300;2023-03-23T10:30:03;15.00;99.90
19538;DHT22;9914;51.008;4.300;2023-03-23T10:35:12;15.20;99.90
19538;DHT22;9914;51.008;4.300;2023-03-23T10:37:52;15.10;99.90
19538;DHT22;9914;51.008;4.300;2023-03-23T10:40:22;15.10;99.90
19538;DHT22;9914;51.008;4.300;2023-03-23T10:42:49;15.40;99.90
19538;DHT22;9914;51.008;4.300;2023-03-23T10:45:25;15.40;99.90
19538;DHT22;9914;51.008;4.300;2023-03-23T10:47:58;15.30;99.90
19538;DHT22;9914;51.008;4.300;2023-03-23T10:50:30;15.60;99.90
19538;DHT22;9914;51.008;4.300;2023-03-23T10:52:58;15.70;99.90
19538;DHT22;9914;51.008;4.300;2023-03-23T10:55:36;16.00;99.90
19538;DHT22;9914;51.008;4.300;2023-03-23T10:58:09;16.00;99.90
19538;DHT22;9914;51.008;4.300;2023-03-23T11:00:44;16.00;99.90
19538;DHT22;9914;51.008;4.300;2023-03-23T11:06:01;15.90;99.90
19538;DHT22;9914;51.008;4.300;2023-03-23T11:08:32;15.80;99.90
19538;DHT22;9914;51.008;4.300;2023-03-23T11:13:41;15.70;99.90
19538;DHT22;9914;51.008;4.300;2023-03-23T11:16:09;15.80;99.90
19538;DHT22;9914;51.008;4.300;2023-03-23T11:18:41;16.00;99.90
19538;DHT22;9914;51.008;4.300;2023-03-23T11:21:09;16.30;99.90
19538;DHT22;9914;51.008;4.300;2023-03-23T11:23:40;16.40;99.90
19538;DHT22;9914;51.008;4.300;2023-03-23T11:31:35;16.80;99.90
19538;DHT22;9914;51.008;4.300;2023-03-23T11:34:13;17.00;99.90
19538;DHT22;9914;51.008;4.300;2023-03-23T11:36:43;17.00;99.90
19538;DHT22;9914;51.008;4.300;2023-03-23T11:39:28;16.70;99.90
19538;DHT22;9914;51.008;4.300;2023-03-23T11:41:57;16.40;99.90
19538;DHT22;9914;51.008;4.300;2023-03-23T11:44:24;16.40;99.90
19538;DHT22;9914;51.008;4.300;2023-03-23T11:52:39;16.70;99.90
19538;DHT22;9914;51.008;4.300;2023-03-23T11:57:35;17.00;99.90
19538;DHT22;9914;51.008;4.300;2023-03-23T12:00:02;17.10;99.90
19538;DHT22;9914;51.008;4.300;2023-03-23T12:02:50;17.20;99.90
19538;DHT22;9914;51.008;4.300;2023-03-23T12:22:40;17.20;99.90
19538;DHT22;9914;51.008;4.300;2023-03-23T12:25:43;17.50;99.90
19538;DHT22;9914;51.008;4.300;2023-03-23T12:34:31;18.00;99.90
19538;DHT22;9914;51.008;4.300;2023-03-23T12:39:53;18.20;99.90
19538;DHT22;9914;51.008;4.300;2023-03-23T12:47:57;18.00;99.90
19538;DHT22;9914;51.008;4.300;2023-03-23T12:51:00;18.10;99.90
19538;DHT22;9914;51.008;4.300;2023-03-23T12:53:18;18.20;99.90
19538;DHT22;9914;51.008;4.300;2023-03-23T12:58:39;18.10;99.90
19538;DHT22;9914;51.008;4.300;2023-03-23T13:01:12;18.20;99.90
19538;DHT22;9914;51.008;4.300;2023-03-23T13:06:29;18.10;99.90
19538;DHT22;9914;51.008;4.300;2023-03-23T13:09:17;18.10;99.90
19538;DHT22;9914;51.008;4.300;2023-03-23T13:11:44;18.00;99.90
19538;DHT22;9914;51.008;4.300;2023-03-23T13:17:38;18.00;99.90
19538;DHT22;9914;51.008;4.300;2023-03-23T13:23:09;17.90;99.90
19538;DHT22;9914;51.008;4.300;2023-03-23T13:26:01;17.90;99.90
19538;DHT22;9914;51.008;4.300;2023-03-23T13:29:17;17.40;99.90
19538;DHT22;9914;51.008;4.300;2023-03-23T13:31:21;17.20;99.90
19538;DHT22;9914;51.008;4.300;2023-03-23T13:33:52;17.00;99.90
19538;DHT22;9914;51.008;4.300;2023-03-23T13:36:37;17.30;99.90
19538;DHT22;9914;51.008;4.300;2023-03-23T13:39:06;17.60;99.90
19538;DHT22;9914;51.008;4.300;2023-03-23T13:41:58;17.80;99.90
19538;DHT22;9914;51.008;4.300;2023-03-23T13:44:25;17.70;99.90
19538;DHT22;9914;51.008;4.300;2023-03-23T13:46:57;17.90;99.90
19538;DHT22;9914;51.008;4.300;2023-03-23T13:49:24;18.00;99.90
19538;DHT22;9914;51.008;4.300;2023-03-23T13:54:23;18.00;99.90
19538;DHT22;9914;51.008;4.300;2023-03-23T13:56:58;17.90;99.90
19538;DHT22;9914;51.008;4.300;2023-03-23T14:02:20;17.90;99.90
19538;DHT22;9914;51.008;4.300;2023-03-23T14:04:42;17.90;99.90
19538;DHT22;9914;51.008;4.300;2023-03-23T14:07:12;17.70;99.90
19538;DHT22;9914;51.008;4.300;2023-03-23T14:09:42;17.70;99.90
19538;DHT22;9914;51.008;4.300;2023-03-23T14:12:18;17.80;99.90
19538;DHT22;9914;51.008;4.300;2023-03-23T14:14:48;17.80;99.90
19538;DHT22;9914;51.008;4.300;2023-03-23T14:17:40;17.70;99.90
19538;DHT22;9914;51.008;4.300;2023-03-23T14:20:19;17.70;99.90
19538;DHT22;9914;51.008;4.300;2023-03-23T14:22:46;17.60;99.90
19538;DHT22;9914;51.008;4.300;2023-03-23T14:25:17;17.80;99.90
19538;DHT22;9914;51.008;4.300;2023-03-23T14:27:44;18.00;99.90
19538;DHT22;9914;51.008;4.300;2023-03-23T14:32:40;18.10;99.90
19538;DHT22;9914;51.008;4.300;2023-03-23T14:35:25;18.10;99.90
19538;DHT22;9914;51.008;4.300;2023-03-23T14:37:52;18.00;99.90
19538;DHT22;9914;51.008;4.300;2023-03-23T14:40:18;17.90;99.90
19538;DHT22;9914;51.008;4.300;2023-03-23T14:42:45;17.90;99.90
19538;DHT22;9914;51.008;4.300;2023-03-23T14:45:17;18.00;99.90
19538;DHT22;9914;51.008;4.300;2023-03-23T14:47:57;17.90;99.90
19538;DHT22;9914;51.008;4.300;2023-03-23T14:50:42;17.70;99.90
19538;DHT22;9914;51.008;4.300;2023-03-23T14:53:38;17.50;99.90
19538;DHT22;9914;51.008;4.300;2023-03-23T14:56:12;17.40;99.90
19538;DHT22;9914;51.008;4.300;2023-03-23T14:58:38;17.30;99.90
19538;DHT22;9914;51.008;4.300;2023-03-23T15:01:28;17.10;99.90
19538;DHT22;9914;51.008;4.300;2023-03-23T15:04:07;17.00;99.90
19538;DHT22;9914;51.008;4.300;2023-03-23T15:06:35;17.10;99.90
19538;DHT22;9914;51.008;4.300;2023-03-23T15:09:05;17.20;99.90
19538;DHT22;9914;51.008;4.300;2023-03-23T15:11:36;17.50;99.90
19538;DHT22;9914;51.008;4.300;2023-03-23T15:14:19;17.70;99.90
19538;DHT22;9914;51.008;4.300;2023-03-23T15:16:50;18.00;99.90
19538;DHT22;9914;51.008;4.300;2023-03-23T15:19:42;18.10;99.90
19538;DHT22;9914;51.008;4.300;2023-03-23T15:22:27;17.80;99.90
19538;DHT22;9914;51.008;4.300;2023-03-23T15:25:11;17.10;99.90
19538;DHT22;9914;51.008;4.300;2023-03-23T15:27:43;16.90;99.90
19538;DHT22;9914;51.008;4.300;2023-03-23T15:32:45;17.30;99.90
19538;DHT22;9914;51.008;4.300;2023-03-23T15:35:23;17.50;99.90
19538;DHT22;9914;51.008;4.300;2023-03-23T15:37:52;17.80;99.90
19538;DHT22;9914;51.008;4.300;2023-03-23T15:40:22;18.10;99.90
19538;DHT22;9914;51.008;4.300;2023-03-23T15:42:49;18.10;99.90
19538;DHT22;9914;51.008;4.300;2023-03-23T15:45:26;18.30;99.90
19538;DHT22;9914;51.008;4.300;2023-03-23T15:47:52;18.10;99.90
19538;DHT22;9914;51.008;4.300;2023-03-23T15:52:53;17.60;99.90
19538;DHT22;9914;51.008;4.300;2023-03-23T15:57:47;17.20;99.90
19538;DHT22;9914;51.008;4.300;2023-03-23T16:00:16;16.70;99.90
19538;DHT22;9914;51.008;4.300;2023-03-23T16:02:45;16.30;99.90
19538;DHT22;9914;51.008;4.300;2023-03-23T16:05:12;16.10;99.90
19538;DHT22;9914;51.008;4.300;2023-03-23T16:07:38;16.00;99.90
19538;DHT22;9914;51.008;4.300;2023-03-23T16:10:05;15.90;99.90
19538;DHT22;9914;51.008;4.300;2023-03-23T16:12:31;16.10;99.90
19538;DHT22;9914;51.008;4.300;2023-03-23T16:14:56;16.40;99.90
19538;DHT22;9914;51.008;4.300;2023-03-23T16:17:22;16.70;99.90
19538;DHT22;9914;51.008;4.300;2023-03-23T16:19:48;16.90;99.90
19538;DHT22;9914;51.008;4.300;2023-03-23T16:22:14;16.90;99.90
19538;DHT22;9914;51.008;4.300;2023-03-23T16:24:40;17.10;99.90
19538;DHT22;9914;51.008;4.300;2023-03-23T16:27:07;17.10;99.90
19538;DHT22;9914;51.008;4.300;2023-03-23T16:29:33;16.90;99.90
19538;DHT22;9914;51.008;4.300;2023-03-23T16:31:58;17.00;99.90
19538;DHT22;9914;51.008;4.300;2023-03-23T16:34:24;17.00;99.90
19538;DHT22;9914;51.008;4.300;2023-03-23T16:36:53;17.00;99.90
19538;DHT22;9914;51.008;4.300;2023-03-23T16:39:18;16.90;99.90
19538;DHT22;9914;51.008;4.300;2023-03-23T16:41:44;16.50;99.90
19538;DHT22;9914;51.008;4.300;2023-03-23T16:44:10;16.50;99.90
19538;DHT22;9914;51.008;4.300;2023-03-23T16:46:36;16.30;99.90
19538;DHT22;9914;51.008;4.300;2023-03-23T16:49:01;16.20;99.90
19538;DHT22;9914;51.008;4.300;2023-03-23T16:51:27;16.20;99.90
19538;DHT22;9914;51.008;4.300;2023-03-23T16:53:53;16.20;99.90
19538;DHT22;9914;51.008;4.300;2023-03-23T16:56:19;16.20;99.90
19538;DHT22;9914;51.008;4.300;2023-03-23T16:58:44;16.20;99.90
19538;DHT22;9914;51.008;4.300;2023-03-23T17:01:10;16.20;99.90
19538;DHT22;9914;51.008;4.300;2023-03-23T17:03:36;16.20;99.90
19538;DHT22;9914;51.008;4.300;2023-03-23T17:06:01;16.10;99.90
19538;DHT22;9914;51.008;4.300;2023-03-23T17:08:28;16.00;99.90
19538;DHT22;9914;51.008;4.300;2023-03-23T17:10:54;16.00;99.90
19538;DHT22;9914;51.008;4.300;2023-03-23T17:13:20;16.00;99.90
19538;DHT22;9914;51.008;4.300;2023-03-23T17:15:46;16.10;99.90
19538;DHT22;9914;51.008;4.300;2023-03-23T17:18:12;16.10;99.90
19538;DHT22;9914;51.008;4.300;2023-03-23T17:20:38;16.10;99.90
19538;DHT22;9914;51.008;4.300;2023-03-23T17:23:04;16.10;99.90
19538;DHT22;9914;51.008;4.300;2023-03-23T17:25:30;16.00;99.90
19538;DHT22;9914;51.008;4.300;2023-03-23T17:27:57;16.00;99.90
19538;DHT22;9914;51.008;4.300;2023-03-23T17:30:23;16.00;99.90
19538;DHT22;9914;51.008;4.300;2023-03-23T17:32:49;15.90;99.90
19538;DHT22;9914;51.008;4.300;2023-03-23T17:35:15;16.00;99.90
19538;DHT22;9914;51.008;4.300;2023-03-23T17:37:41;16.00;99.90
19538;DHT22;9914;51.008;4.300;2023-03-23T17:40:08;16.10;99.90
19538;DHT22;9914;51.008;4.300;2023-03-23T17:42:35;16.00;99.90
19538;DHT22;9914;51.008;4.300;2023-03-23T17:45:02;16.00;99.90
19538;DHT22;9914;51.008;4.300;2023-03-23T17:47:29;16.00;99.90
19538;DHT22;9914;51.008;4.300;2023-03-23T17:49:54;16.00;99.90
19538;DHT22;9914;51.008;4.300;2023-03-23T17:52:21;16.00;99.90
19538;DHT22;9914;51.008;4.300;2023-03-23T17:54:47;16.00;99.90
19538;DHT22;9914;51.008;4.300;2023-03-23T17:57:12;16.00;99.90